Time;durP1;ratioP1;P1;durP2;ratioP2;P2;SDS_P1;SDS_P2;PMS_P1;PMS_P2;Temp;Humidity;BMP_temperature;BMP_pressure;BME280_temperature;BME280_humidity;BME280_pressure;Samples;Min_cycle;Max_cycle;Signal;HPM_P1;HPM_P2
2022/06/24 00:02:18;;;;;;;5.00;1.42;;;20.20;99.90;;;;;;5077732;28;20047;-66
2022/06/24 00:05:00;;;;;;;7.75;2.15;;;20.10;99.90;;;;;;5083493;28;20039;-66
2022/06/24 00:07:26;;;;;;;5.07;1.90;;;20.10;99.90;;;;;;5073278;28;20044;-66
2022/06/24 00:09:52;;;;;;;2.80;1.60;;;20.00;99.90;;;;;;5081328;28;20036;-66
2022/06/24 00:12:21;;;;;;;3.90;1.60;;;19.80;99.90;;;;;;5064457;28;20032;-66
2022/06/24 00:15:00;;;;;;;2.13;1.60;;;19.80;99.90;;;;;;5059050;28;20076;-66
2022/06/24 00:17:32;;;;;;;2.13;1.70;;;19.80;99.90;;;;;;5065318;28;20040;-66
2022/06/24 00:20:06;;;;;;;3.05;1.60;;;19.70;99.90;;;;;;5061981;28;20032;-66
2022/06/24 00:22:41;;;;;;;3.72;1.58;;;19.50;99.90;;;;;;5065604;28;20040;-66
2022/06/24 00:25:11;;;;;;;4.70;2.03;;;19.40;99.90;;;;;;5081061;28;21838;-66
2022/06/24 00:27:38;;;;;;;5.18;1.58;;;19.30;99.90;;;;;;5079902;28;20047;-66
2022/06/24 00:30:15;;;;;;;2.80;1.70;;;19.20;99.90;;;;;;5062354;28;20045;-66
2022/06/24 00:32:42;;;;;;;2.65;1.98;;;19.30;99.90;;;;;;5080590;28;20123;-66
2022/06/24 00:35:10;;;;;;;3.00;1.80;;;19.30;99.90;;;;;;5082372;28;20055;-66
2022/06/24 00:37:37;;;;;;;2.95;1.90;;;19.30;99.90;;;;;;5083589;28;20112;-66
2022/06/24 00:40:22;;;;;;;4.57;1.90;;;19.30;99.90;;;;;;5064304;28;20052;-66
2022/06/24 00:42:48;;;;;;;5.35;1.85;;;19.20;99.90;;;;;;5075348;28;20074;-66
2022/06/24 00:45:21;;;;;;;2.72;2.25;;;19.10;99.90;;;;;;5067569;28;20044;-66
2022/06/24 00:47:48;;;;;;;3.53;2.17;;;19.10;99.90;;;;;;5061925;28;20044;-66
2022/06/24 00:50:26;;;;;;;2.97;2.03;;;19.00;99.90;;;;;;5066488;28;20044;-66
2022/06/24 00:52:56;;;;;;;5.05;2.10;;;18.90;99.90;;;;;;5066103;28;20043;-66
2022/06/24 00:55:31;;;;;;;3.35;1.52;;;18.80;99.90;;;;;;5067997;28;20036;-66
2022/06/24 00:57:59;;;;;;;3.17;1.50;;;18.80;99.90;;;;;;5088572;28;20035;-66
2022/06/24 01:00:26;;;;;;;2.08;1.88;;;18.80;99.90;;;;;;5085478;28;20316;-66
2022/06/24 01:03:03;;;;;;;3.35;2.00;;;18.70;99.90;;;;;;5083804;28;20032;-66
2022/06/24 01:05:30;;;;;;;6.78;1.70;;;18.60;99.90;;;;;;5084089;28;20036;-66
2022/06/24 01:07:58;;;;;;;4.32;1.85;;;18.60;99.90;;;;;;5086713;28;20051;-66
2022/06/24 01:10:24;;;;;;;6.07;1.52;;;18.60;99.90;;;;;;5067580;28;20040;-66
2022/06/24 01:12:50;;;;;;;3.47;1.25;;;18.70;99.90;;;;;;5070858;28;20052;-66
2022/06/24 01:15:16;;;;;;;14.98;2.65;;;18.90;99.90;;;;;;5083805;28;20078;-66
2022/06/24 01:17:41;;;;;;;10.27;2.22;;;18.90;99.90;;;;;;5072387;28;20048;-66
2022/06/24 01:20:09;;;;;;;8.23;2.33;;;18.90;99.90;;;;;;5083992;28;20044;-66
2022/06/24 01:22:35;;;;;;;5.85;1.90;;;18.80;99.90;;;;;;5084567;28;20037;-66
2022/06/24 01:25:01;;;;;;;3.53;2.10;;;18.80;99.90;;;;;;5067196;28;20093;-66
2022/06/24 01:27:27;;;;;;;4.95;2.00;;;18.70;99.90;;;;;;5088134;28;20047;-66
2022/06/24 01:29:53;;;;;;;2.80;1.90;;;18.70;99.90;;;;;;5084096;28;20039;-66
2022/06/24 01:32:19;;;;;;;2.53;1.83;;;18.60;99.90;;;;;;5064103;28;20540;-66
2022/06/24 01:34:45;;;;;;;2.90;1.77;;;18.50;99.90;;;;;;5088990;28;20488;-66
2022/06/24 01:37:11;;;;;;;2.78;1.67;;;18.50;99.90;;;;;;5066797;28;20123;-66
2022/06/24 01:39:38;;;;;;;3.83;1.75;;;18.50;99.90;;;;;;5079662;28;20037;-66
2022/06/24 01:42:05;;;;;;;2.17;1.65;;;18.40;99.90;;;;;;5064329;28;20172;-66
2022/06/24 01:44:30;;;;;;;2.58;1.27;;;18.40;99.90;;;;;;5063044;28;20045;-65
2022/06/24 01:46:56;;;;;;;2.58;1.48;;;18.40;99.90;;;;;;5069248;28;20046;-66
2022/06/24 01:49:22;;;;;;;4.10;1.63;;;18.50;99.90;;;;;;5070449;28;20039;-66
2022/06/24 01:51:51;;;;;;;4.60;1.20;;;18.60;99.90;;;;;;5064131;28;20041;-66
2022/06/24 01:54:16;;;;;;;1.80;1.58;;;18.60;99.90;;;;;;5089962;28;20046;-66
2022/06/24 01:56:42;;;;;;;5.28;1.60;;;18.70;99.90;;;;;;5066265;28;20421;-66
2022/06/24 01:59:08;;;;;;;1.83;1.40;;;18.70;99.90;;;;;;5082709;28;20035;-66
2022/06/24 02:01:33;;;;;;;3.10;1.73;;;18.70;99.90;;;;;;5083310;28;20060;-66
2022/06/24 02:03:59;;;;;;;2.85;1.83;;;18.60;99.90;;;;;;5083796;28;20470;-66
2022/06/24 02:06:25;;;;;;;2.33;1.77;;;18.60;99.90;;;;;;5065289;28;20379;-66
2022/06/24 02:08:51;;;;;;;2.60;1.80;;;18.50;99.90;;;;;;5080720;28;20040;-66
2022/06/24 02:14:06;;;;;;;2.17;1.83;;;18.20;99.90;;;;;;5080720;28;20051;-66
2022/06/24 02:16:32;;;;;;;3.60;2.40;;;18.00;99.90;;;;;;5083736;28;20131;-66
2022/06/24 02:18:59;;;;;;;5.57;1.60;;;17.90;99.90;;;;;;5081567;28;20617;-66
2022/06/24 02:21:25;;;;;;;2.22;1.48;;;17.80;99.90;;;;;;5081405;28;20123;-66
2022/06/24 02:23:52;;;;;;;2.13;1.33;;;17.80;99.90;;;;;;5086897;28;20473;-66
2022/06/24 02:26:18;;;;;;;5.50;1.40;;;17.90;99.90;;;;;;5080080;28;20047;-66
2022/06/24 02:28:44;;;;;;;2.47;1.77;;;18.00;99.90;;;;;;5082760;28;20035;-66
2022/06/24 02:31:10;;;;;;;4.00;1.65;;;18.10;99.90;;;;;;5068159;28;20451;-66
2022/06/24 02:33:35;;;;;;;5.40;1.90;;;18.10;99.90;;;;;;5083181;28;20043;-66
2022/06/24 02:36:02;;;;;;;6.95;2.00;;;18.20;99.90;;;;;;5064551;28;20044;-66
2022/06/24 02:38:27;;;;;;;2.78;1.80;;;18.30;99.90;;;;;;5052700;28;20032;-66
2022/06/24 02:40:53;;;;;;;6.65;1.92;;;18.30;99.90;;;;;;5071837;28;20634;-66
2022/06/24 02:43:33;;;;;;;2.63;2.00;;;18.30;99.90;;;;;;5084313;28;20032;-66
2022/06/24 02:46:02;;;;;;;2.00;1.83;;;18.30;99.90;;;;;;5083737;28;20027;-66
2022/06/24 02:48:29;;;;;;;3.15;2.47;;;18.30;99.90;;;;;;5070081;28;20039;-66
2022/06/24 02:50:57;;;;;;;2.22;1.95;;;18.40;99.90;;;;;;5081247;28;20189;-66
2022/06/24 02:53:23;;;;;;;5.90;1.70;;;18.40;99.90;;;;;;5072051;28;20062;-66
2022/06/24 02:55:55;;;;;;;1.85;1.67;;;18.50;99.90;;;;;;5070360;28;20036;-66
2022/06/24 02:58:21;;;;;;;3.42;1.58;;;18.50;99.90;;;;;;5082297;28;20042;-67
2022/06/24 03:00:47;;;;;;;3.63;1.65;;;18.50;99.90;;;;;;5065417;28;20040;-66
2022/06/24 03:03:15;;;;;;;4.43;1.63;;;18.50;99.90;;;;;;5079111;28;20039;-66
2022/06/24 03:05:41;;;;;;;5.18;1.40;;;18.70;99.90;;;;;;5083553;28;20081;-66
2022/06/24 03:08:09;;;;;;;3.10;1.20;;;18.70;99.90;;;;;;5062689;28;20040;-66
2022/06/24 03:10:35;;;;;;;3.58;1.60;;;18.80;99.90;;;;;;5070252;28;20119;-66
2022/06/24 03:13:01;;;;;;;4.07;1.65;;;18.80;99.90;;;;;;5064651;28;20135;-66
2022/06/24 03:15:27;;;;;;;2.75;1.40;;;18.90;99.90;;;;;;5064771;28;20059;-66
2022/06/24 03:17:52;;;;;;;2.75;1.35;;;18.90;99.90;;;;;;5080524;28;20039;-66
2022/06/24 03:20:18;;;;;;;2.35;1.70;;;18.90;99.90;;;;;;5083563;28;20055;-66
2022/06/24 03:22:44;;;;;;;2.67;1.63;;;18.90;99.90;;;;;;5066852;28;20031;-66
2022/06/24 03:25:09;;;;;;;3.15;1.63;;;18.90;99.90;;;;;;5072942;28;20032;-66
2022/06/24 03:27:36;;;;;;;6.03;1.60;;;18.80;99.90;;;;;;5080129;28;20037;-66
2022/06/24 03:30:02;;;;;;;1.83;1.60;;;18.90;99.90;;;;;;5082081;28;20506;-66
2022/06/24 03:32:28;;;;;;;4.10;1.50;;;18.80;99.90;;;;;;5068068;28;20493;-66
2022/06/24 03:34:53;;;;;;;2.75;1.63;;;18.80;99.90;;;;;;5049984;28;20048;-66
2022/06/24 03:37:19;;;;;;;3.40;1.45;;;18.80;99.90;;;;;;5064819;28;20055;-66
2022/06/24 03:39:44;;;;;;;2.67;1.90;;;18.80;99.90;;;;;;5087293;28;20372;-66
2022/06/24 03:42:10;;;;;;;4.57;1.70;;;18.90;99.90;;;;;;5083634;28;20042;-66
2022/06/24 03:44:36;;;;;;;2.22;1.75;;;19.00;99.90;;;;;;5077255;28;20037;-66
2022/06/24 03:47:02;;;;;;;3.90;1.67;;;18.90;99.90;;;;;;5061517;28;20094;-67
2022/06/24 03:49:28;;;;;;;2.97;1.30;;;18.90;99.90;;;;;;5066353;28;20045;-66
2022/06/24 03:51:54;;;;;;;2.35;1.80;;;19.10;99.90;;;;;;5066299;28;20050;-66
2022/06/24 03:54:21;;;;;;;6.93;1.42;;;19.10;99.90;;;;;;5081505;28;20044;-66
2022/06/24 03:56:46;;;;;;;2.28;1.67;;;19.20;99.90;;;;;;5077762;28;20524;-66
2022/06/24 03:59:12;;;;;;;2.45;1.48;;;19.20;99.90;;;;;;5061388;28;20036;-66
2022/06/24 04:01:38;;;;;;;2.08;1.42;;;19.30;99.90;;;;;;5083893;28;20035;-66
2022/06/24 04:04:04;;;;;;;3.75;1.63;;;19.40;99.90;;;;;;5062908;28;20424;-66
2022/06/24 04:06:29;;;;;;;5.18;1.60;;;19.50;99.90;;;;;;5065707;28;20039;-66
2022/06/24 04:08:55;;;;;;;3.33;2.08;;;19.60;99.90;;;;;;5066299;28;20042;-66
2022/06/24 04:11:21;;;;;;;7.68;2.45;;;19.70;99.90;;;;;;5078749;28;20659;-66
2022/06/24 04:13:47;;;;;;;2.90;2.10;;;20.10;99.90;;;;;;5069195;28;20047;-66
2022/06/24 04:16:13;;;;;;;2.97;2.40;;;20.40;99.90;;;;;;5081517;28;20620;-66
2022/06/24 04:18:39;;;;;;;8.27;2.70;;;20.50;99.90;;;;;;5078270;28;20521;-66
2022/06/24 04:21:15;;;;;;;4.82;2.63;;;20.60;99.90;;;;;;5082107;28;20093;-66
2022/06/24 04:23:42;;;;;;;7.80;2.65;;;20.50;99.90;;;;;;5080390;28;20031;-66
2022/06/24 04:26:08;;;;;;;4.13;2.75;;;20.60;99.90;;;;;;5065747;28;20044;-66
2022/06/24 04:28:35;;;;;;;4.93;3.80;;;20.70;99.90;;;;;;5065088;28;20032;-66
2022/06/24 04:31:00;;;;;;;9.63;4.70;;;20.80;99.90;;;;;;5084619;28;20502;-66
2022/06/24 04:33:26;;;;;;;6.68;5.82;;;21.00;99.90;;;;;;5067015;28;20038;-66
2022/06/24 04:35:52;;;;;;;6.88;5.53;;;21.20;99.90;;;;;;5064806;28;20040;-66
2022/06/24 04:38:18;;;;;;;9.57;6.50;;;21.50;99.90;;;;;;5085552;28;20497;-66
2022/06/24 04:40:44;;;;;;;9.50;6.50;;;21.80;99.90;;;;;;5069075;28;20045;-67
2022/06/24 04:43:09;;;;;;;9.27;7.80;;;22.00;99.90;;;;;;5087635;28;20024;-66
2022/06/24 04:45:35;;;;;;;11.07;7.53;;;22.00;99.90;;;;;;5086533;28;20032;-66
2022/06/24 04:48:01;;;;;;;7.55;6.03;;;21.80;99.90;;;;;;5069080;28;20036;-66
2022/06/24 04:50:27;;;;;;;7.15;5.30;;;21.70;99.90;;;;;;5068544;28;20039;-66
2022/06/24 04:52:53;;;;;;;9.73;4.22;;;21.60;99.90;;;;;;5082031;28;20051;-66
2022/06/24 04:55:19;;;;;;;7.72;3.58;;;21.60;99.90;;;;;;5073654;28;20453;-66
2022/06/24 04:57:45;;;;;;;6.38;3.10;;;21.50;99.90;;;;;;5068689;28;20403;-66
2022/06/24 05:00:11;;;;;;;5.35;3.10;;;21.50;99.90;;;;;;5083780;28;20421;-66
2022/06/24 05:02:38;;;;;;;8.55;3.55;;;21.50;99.90;;;;;;5066915;28;20139;-66
2022/06/24 05:05:05;;;;;;;4.25;2.72;;;21.70;99.90;;;;;;5049418;28;20038;-66
2022/06/24 05:07:31;;;;;;;3.55;2.35;;;22.00;99.90;;;;;;5068177;28;20047;-66
2022/06/24 05:09:56;;;;;;;6.68;3.28;;;22.70;99.90;;;;;;5082272;28;20031;-66
2022/06/24 05:12:22;;;;;;;5.40;2.00;;;23.50;99.90;;;;;;5069712;28;20119;-66
2022/06/24 05:14:47;;;;;;;5.05;2.72;;;24.40;99.90;;;;;;5088774;28;20040;-66
2022/06/24 05:17:13;;;;;;;4.07;2.45;;;24.80;99.90;;;;;;5068289;28;20032;-66
2022/06/24 05:19:39;;;;;;;3.10;2.28;;;25.10;99.90;;;;;;5083127;28;20035;-66
2022/06/24 05:22:05;;;;;;;4.28;2.30;;;25.00;99.90;;;;;;5082798;28;20064;-67
2022/06/24 05:24:30;;;;;;;4.45;2.30;;;24.60;99.90;;;;;;5087473;28;20491;-66
2022/06/24 05:26:56;;;;;;;6.90;2.40;;;24.20;99.90;;;;;;5062786;28;20035;-66
2022/06/24 05:29:22;;;;;;;5.78;2.50;;;23.70;99.90;;;;;;5061877;28;20044;-66
2022/06/24 05:31:47;;;;;;;5.55;2.35;;;23.30;99.90;;;;;;5085325;28;20059;-66
2022/06/24 05:34:13;;;;;;;6.72;2.33;;;23.00;99.90;;;;;;5081142;28;20040;-66
2022/06/24 05:36:39;;;;;;;5.10;2.13;;;22.80;99.90;;;;;;5074154;28;20424;-66
2022/06/24 05:39:06;;;;;;;6.90;3.20;;;22.50;99.90;;;;;;5069090;28;20055;-66
2022/06/24 05:41:33;;;;;;;5.88;2.20;;;22.40;99.90;;;;;;5064961;28;20055;-66
2022/06/24 05:43:59;;;;;;;4.57;2.28;;;22.30;99.90;;;;;;5082317;28;20051;-66
2022/06/24 05:46:26;;;;;;;5.38;2.08;;;22.00;99.90;;;;;;5066046;28;20044;-66
2022/06/24 05:48:52;;;;;;;4.88;2.67;;;21.80;99.90;;;;;;5081804;28;20032;-66
2022/06/24 05:51:18;;;;;;;4.53;2.33;;;21.70;99.90;;;;;;5084274;28;20031;-66
2022/06/24 05:56:31;;;;;;;4.53;2.20;;;21.50;99.90;;;;;;5066479;28;20044;-66
2022/06/24 05:58:57;;;;;;;2.75;1.95;;;21.40;99.90;;;;;;5084210;28;20035;-66
2022/06/24 06:01:23;;;;;;;4.57;2.53;;;21.30;99.90;;;;;;5064321;28;20047;-66
2022/06/24 06:03:49;;;;;;;3.58;2.33;;;21.30;99.90;;;;;;5065964;28;20093;-66
2022/06/24 06:06:15;;;;;;;2.97;1.83;;;21.20;99.90;;;;;;5082569;28;20044;-67
2022/06/24 06:08:40;;;;;;;3.63;1.70;;;21.20;99.90;;;;;;5081306;28;20036;-66
2022/06/24 06:11:11;;;;;;;4.95;2.22;;;21.20;99.90;;;;;;5064185;28;20124;-66
2022/06/24 06:13:37;;;;;;;6.50;2.55;;;21.20;99.90;;;;;;5065920;28;20041;-66
2022/06/24 06:16:03;;;;;;;3.17;2.22;;;21.20;99.90;;;;;;5083866;28;20083;-66
2022/06/24 06:18:28;;;;;;;1.88;1.50;;;21.20;99.90;;;;;;5084389;28;20032;-66
2022/06/24 06:21:03;;;;;;;4.53;3.38;;;21.20;99.90;;;;;;5066725;28;20044;-66
2022/06/24 06:23:28;;;;;;;2.47;1.60;;;21.30;99.90;;;;;;5077946;28;20072;-66
2022/06/24 06:25:58;;;;;;;2.80;1.48;;;21.30;99.90;;;;;;5061843;28;20520;-66
2022/06/24 06:28:24;;;;;;;2.42;1.48;;;21.30;99.90;;;;;;5069192;28;20046;-66
2022/06/24 06:30:50;;;;;;;7.90;1.90;;;21.30;99.90;;;;;;5082881;28;20040;-66
2022/06/24 06:33:16;;;;;;;3.08;1.38;;;21.40;99.90;;;;;;5083646;28;20047;-66
2022/06/24 06:35:43;;;;;;;4.38;1.70;;;21.40;99.90;;;;;;5060920;28;20036;-67
2022/06/24 06:38:10;;;;;;;4.68;2.03;;;21.40;99.90;;;;;;5079909;28;20050;-67
2022/06/24 06:40:37;;;;;;;4.47;1.70;;;21.30;99.90;;;;;;5064898;28;20043;-66
2022/06/24 06:43:05;;;;;;;4.82;1.63;;;21.30;99.90;;;;;;5082349;28;20054;-67
2022/06/24 06:45:32;;;;;;;4.57;1.58;;;21.30;99.90;;;;;;5078529;28;20052;-67
2022/06/24 06:47:58;;;;;;;2.05;1.75;;;21.20;99.90;;;;;;5061212;28;20071;-66
2022/06/24 06:50:24;;;;;;;4.22;1.55;;;21.10;99.90;;;;;;5062754;28;20072;-66
2022/06/24 06:52:49;;;;;;;2.10;1.48;;;21.10;99.90;;;;;;5067512;28;20038;-66
2022/06/24 06:55:15;;;;;;;6.10;2.25;;;21.00;99.90;;;;;;5085531;28;20049;-66
2022/06/24 06:57:41;;;;;;;3.10;1.50;;;20.90;99.90;;;;;;5081858;28;20044;-66
2022/06/24 07:00:09;;;;;;;3.63;2.08;;;20.80;99.90;;;;;;5062617;28;20083;-66
2022/06/24 07:02:38;;;;;;;3.75;2.10;;;20.80;99.90;;;;;;5080538;28;20529;-66
2022/06/24 07:05:05;;;;;;;2.55;1.70;;;20.80;99.90;;;;;;5074159;28;20063;-66
2022/06/24 07:07:30;;;;;;;2.45;1.70;;;20.70;99.90;;;;;;5080733;28;20069;-66
2022/06/24 07:09:57;;;;;;;3.70;1.67;;;20.70;99.90;;;;;;5080873;28;20528;-66
2022/06/24 07:12:23;;;;;;;2.35;1.88;;;20.70;99.90;;;;;;5062749;28;20040;-66
2022/06/24 07:14:49;;;;;;;8.73;2.10;;;20.70;99.90;;;;;;5065876;28;20047;-66
2022/06/24 07:17:15;;;;;;;3.53;2.15;;;20.70;99.90;;;;;;5081683;28;20040;-66
2022/06/24 07:19:41;;;;;;;3.70;1.90;;;20.70;99.90;;;;;;5065442;28;20426;-65
2022/06/24 07:22:06;;;;;;;4.72;2.20;;;20.70;99.90;;;;;;5063468;28;20134;-65
2022/06/24 07:24:32;;;;;;;6.35;2.45;;;20.70;99.90;;;;;;5078314;28;20115;-65
2022/06/24 07:26:57;;;;;;;3.58;2.50;;;20.60;99.90;;;;;;5064105;28;20386;-65
2022/06/24 07:29:23;;;;;;;2.97;2.20;;;20.70;99.90;;;;;;5064704;28;20079;-65
2022/06/24 07:31:49;;;;;;;5.85;2.30;;;20.60;99.90;;;;;;5080025;28;20119;-65
2022/06/24 07:34:15;;;;;;;4.13;2.40;;;20.70;99.90;;;;;;5049057;28;20072;-65
2022/06/24 07:36:42;;;;;;;4.07;3.10;;;20.60;99.90;;;;;;5082450;28;20037;-65
2022/06/24 07:39:09;;;;;;;2.88;2.30;;;20.60;99.90;;;;;;5064326;28;20032;-65
2022/06/24 07:41:35;;;;;;;4.60;2.80;;;20.60;99.90;;;;;;5064522;28;20040;-65
2022/06/24 07:44:01;;;;;;;6.18;3.17;;;20.50;99.90;;;;;;5084082;28;20043;-65
2022/06/24 07:46:27;;;;;;;3.25;2.88;;;20.50;99.90;;;;;;5064056;28;20043;-65
2022/06/24 07:48:53;;;;;;;4.47;2.95;;;20.50;99.90;;;;;;5063349;28;20606;-65
2022/06/24 07:51:19;;;;;;;7.22;3.20;;;20.50;99.90;;;;;;5082937;28;20047;-65
2022/06/24 07:53:47;;;;;;;5.00;3.25;;;20.50;99.90;;;;;;5084653;28;20119;-65
2022/06/24 07:58:57;;;;;;;4.63;3.20;;;20.60;99.90;;;;;;5083282;28;20467;-65
2022/06/24 08:01:23;;;;;;;5.07;3.60;;;20.60;99.90;;;;;;5070170;28;20081;-65
2022/06/24 08:03:49;;;;;;;4.45;3.33;;;20.70;99.90;;;;;;5083056;28;20066;-65
2022/06/24 08:06:15;;;;;;;10.23;2.80;;;20.50;99.90;;;;;;5082371;28;20414;-65
2022/06/24 08:08:41;;;;;;;5.53;3.88;;;20.50;99.90;;;;;;5078493;28;20075;-65
2022/06/24 08:11:07;;;;;;;5.25;3.20;;;20.50;99.90;;;;;;5085584;28;20060;-65
2022/06/24 08:13:32;;;;;;;5.25;3.75;;;20.60;99.90;;;;;;5078913;28;20036;-66
2022/06/24 08:15:58;;;;;;;4.57;3.72;;;20.50;99.90;;;;;;5061747;28;20048;-66
2022/06/24 08:18:26;;;;;;;7.15;3.10;;;20.50;99.90;;;;;;5081549;28;20087;-66
2022/06/24 08:20:51;;;;;;;3.85;3.30;;;20.60;99.90;;;;;;5076240;28;20066;-66
2022/06/24 08:23:17;;;;;;;6.28;3.53;;;20.50;99.90;;;;;;5061157;28;20044;-66
2022/06/24 08:25:43;;;;;;;5.53;4.60;;;20.50;99.90;;;;;;5081431;28;20044;-66
2022/06/24 08:28:10;;;;;;;8.15;4.20;;;20.50;99.90;;;;;;5078340;28;20075;-65
2022/06/24 08:30:36;;;;;;;7.78;4.25;;;20.50;99.90;;;;;;5084350;28;20093;-65
2022/06/24 08:33:02;;;;;;;5.68;4.63;;;20.50;99.90;;;;;;5078607;28;20032;-65
2022/06/24 08:35:28;;;;;;;6.05;4.10;;;20.50;99.90;;;;;;5080608;28;20131;-65
2022/06/24 08:37:55;;;;;;;6.10;4.60;;;20.70;99.90;;;;;;5066610;28;20326;-65
2022/06/24 08:40:22;;;;;;;5.10;4.35;;;20.70;99.90;;;;;;5063640;28;20040;-65
2022/06/24 08:42:52;;;;;;;6.05;4.20;;;20.70;99.90;;;;;;5065307;28;20044;-65
2022/06/24 08:45:18;;;;;;;4.28;3.85;;;20.70;99.90;;;;;;5060809;28;20056;-65
2022/06/24 08:47:47;;;;;;;6.43;3.90;;;20.80;99.90;;;;;;5082213;28;20059;-65
2022/06/24 08:50:12;;;;;;;7.88;4.05;;;20.70;99.90;;;;;;5081072;28;20040;-65
2022/06/24 08:52:44;;;;;;;6.63;4.53;;;20.70;99.90;;;;;;5062980;28;20086;-65
2022/06/24 08:55:15;;;;;;;7.35;4.43;;;20.80;99.90;;;;;;5050749;28;20064;-66
2022/06/24 08:57:40;;;;;;;7.25;4.40;;;20.70;99.90;;;;;;5081080;28;20059;-65
2022/06/24 09:00:07;;;;;;;5.05;4.32;;;20.80;99.90;;;;;;5064514;28;20039;-65
2022/06/24 09:02:32;;;;;;;5.03;4.53;;;20.80;99.90;;;;;;5063088;28;20499;-66
2022/06/24 09:05:09;;;;;;;4.57;4.15;;;20.80;99.90;;;;;;5080506;28;20047;-65
2022/06/24 09:07:34;;;;;;;5.40;4.90;;;20.80;99.90;;;;;;5080759;28;20064;-66
2022/06/24 09:10:04;;;;;;;5.32;4.80;;;20.80;99.90;;;;;;5078346;28;20073;-65
2022/06/24 09:12:37;;;;;;;7.00;4.22;;;20.80;99.90;;;;;;5071161;28;20093;-65
2022/06/24 09:15:04;;;;;;;5.25;4.50;;;20.80;99.90;;;;;;5084879;28;20032;-65
2022/06/24 09:17:31;;;;;;;5.70;4.15;;;20.70;99.90;;;;;;5063475;28;20040;-65
2022/06/24 09:20:15;;;;;;;5.88;5.28;;;20.70;99.90;;;;;;5081036;28;20047;-65
2022/06/24 09:22:41;;;;;;;6.88;5.18;;;20.60;99.90;;;;;;5071379;28;20090;-66
2022/06/24 09:25:07;;;;;;;7.47;4.47;;;20.60;99.90;;;;;;5082155;28;20044;-66
2022/06/24 09:27:34;;;;;;;7.05;4.60;;;20.50;99.90;;;;;;5070312;28;20468;-66
2022/06/24 09:30:01;;;;;;;6.28;4.78;;;20.50;99.90;;;;;;5083939;28;20111;-66
2022/06/24 09:32:28;;;;;;;9.00;5.10;;;20.50;99.90;;;;;;5082005;28;20042;-66
2022/06/24 09:35:05;;;;;;;6.43;4.50;;;20.40;99.90;;;;;;5083366;28;20054;-66
2022/06/24 09:37:34;;;;;;;11.95;5.20;;;20.30;99.90;;;;;;5067858;28;20536;-65
2022/06/24 09:40:14;;;;;;;8.63;3.50;;;20.20;99.90;;;;;;5081326;28;20514;-65
2022/06/24 09:42:39;;;;;;;4.35;3.28;;;20.10;99.90;;;;;;5084245;28;20072;-65
2022/06/24 09:45:06;;;;;;;3.83;2.70;;;20.10;99.90;;;;;;5073445;28;20133;-65
2022/06/24 09:47:37;;;;;;;5.57;2.88;;;20.00;99.90;;;;;;5086356;28;20047;-65
2022/06/24 09:50:03;;;;;;;3.60;2.70;;;20.00;99.90;;;;;;5081476;28;20090;-65
2022/06/24 09:52:30;;;;;;;7.03;2.75;;;19.90;99.90;;;;;;5083326;28;20497;-65
2022/06/24 09:54:56;;;;;;;3.97;2.55;;;19.80;99.90;;;;;;5061246;28;20051;-66
2022/06/24 09:57:22;;;;;;;3.72;2.38;;;19.60;99.90;;;;;;5068528;28;20114;-65
2022/06/24 10:02:33;;;;;;;3.55;2.05;;;19.50;99.90;;;;;;5085296;28;20036;-65
2022/06/24 10:05:01;;;;;;;8.20;2.40;;;19.40;99.90;;;;;;5082666;28;20059;-65
2022/06/24 10:07:31;;;;;;;4.47;2.08;;;19.30;99.90;;;;;;5086047;28;20108;-65
2022/06/24 10:09:59;;;;;;;4.65;1.67;;;19.30;99.90;;;;;;5070279;28;20075;-65
2022/06/24 10:12:26;;;;;;;2.50;1.70;;;19.20;99.90;;;;;;5080090;28;20131;-65
2022/06/24 10:14:52;;;;;;;2.65;1.52;;;19.20;99.90;;;;;;5085490;28;20805;-65
2022/06/24 10:17:19;;;;;;;2.47;1.27;;;19.10;99.90;;;;;;5066215;28;20063;-65
2022/06/24 10:19:45;;;;;;;4.50;2.10;;;19.10;99.90;;;;;;5081562;28;20036;-65
2022/06/24 10:22:36;;;;;;;3.95;1.60;;;19.10;99.90;;;;;;5063416;28;20055;-65
2022/06/24 10:25:02;;;;;;;4.65;1.50;;;19.00;99.90;;;;;;5069455;28;20135;-65
2022/06/24 10:28:05;;;;;;;4.07;1.70;;;19.00;99.90;;;;;;5082777;28;20080;-65
2022/06/24 10:30:39;;;;;;;3.75;1.58;;;18.90;99.90;;;;;;5002868;28;20073;-65
2022/06/24 10:33:12;;;;;;;2.97;1.50;;;18.90;99.90;;;;;;5058033;28;20056;-65
2022/06/24 10:36:02;;;;;;;3.60;1.50;;;18.80;99.90;;;;;;5066580;28;20048;-65
2022/06/24 10:38:39;;;;;;;5.32;1.70;;;18.90;99.90;;;;;;5079930;28;20125;-65
2022/06/24 10:41:08;;;;;;;3.45;1.40;;;18.80;99.90;;;;;;5083143;28;20047;-65
2022/06/24 10:43:35;;;;;;;3.47;1.50;;;18.80;99.90;;;;;;5067728;28;20249;-65
2022/06/24 10:46:13;;;;;;;2.92;1.55;;;18.80;99.90;;;;;;5085976;28;20054;-65
2022/06/24 10:48:50;;;;;;;2.50;1.77;;;18.80;99.90;;;;;;5065231;28;20056;-65
2022/06/24 10:51:17;;;;;;;6.28;1.98;;;18.80;99.90;;;;;;5070652;28;20154;-65
2022/06/24 10:54:01;;;;;;;2.38;1.50;;;18.80;99.90;;;;;;5069998;28;20052;-65
2022/06/24 10:56:53;;;;;;;2.63;2.00;;;18.90;99.90;;;;;;5081182;28;20051;-65
2022/06/24 10:59:20;;;;;;;1.50;1.40;;;18.90;99.90;;;;;;5066062;28;20043;-65
2022/06/24 11:01:48;;;;;;;2.80;1.75;;;18.90;99.90;;;;;;5069111;28;20446;-65
2022/06/24 11:04:24;;;;;;;3.30;1.83;;;19.00;99.90;;;;;;5062395;28;20032;-65
2022/06/24 11:07:09;;;;;;;;;;;19.00;99.90;;;;;;5067900;28;20048;-65
2022/06/24 11:09:35;;;;;;;1.63;1.42;;;19.00;99.90;;;;;;5066012;28;19927;-65
2022/06/24 11:12:06;;;;;;;2.28;1.33;;;19.10;99.90;;;;;;5082167;28;20059;-65
2022/06/24 11:14:33;;;;;;;1.52;1.38;;;19.10;99.90;;;;;;5084009;28;20409;-65
2022/06/24 11:17:07;;;;;;;2.40;1.52;;;19.20;99.90;;;;;;5076745;28;20051;-65
2022/06/24 11:19:39;;;;;;;2.72;1.48;;;19.10;99.90;;;;;;5081649;28;20043;-65
2022/06/24 11:22:05;;;;;;;1.58;1.48;;;19.30;99.90;;;;;;5082427;28;20040;-65
2022/06/24 11:24:35;;;;;;;2.83;2.00;;;19.20;99.90;;;;;;5067349;28;20116;-65
2022/06/24 11:27:05;;;;;;;2.42;2.20;;;19.30;99.90;;;;;;5078803;28;20133;-65
2022/06/24 11:29:51;;;;;;;4.22;1.80;;;19.40;99.90;;;;;;5083214;28;20043;-65
2022/06/24 11:32:17;;;;;;;2.05;1.75;;;19.40;99.90;;;;;;5081672;28;20569;-65
2022/06/24 11:34:43;;;;;;;2.58;1.80;;;19.50;99.90;;;;;;5081436;28;20044;-65
2022/06/24 11:37:10;;;;;;;4.18;1.65;;;19.50;99.90;;;;;;5061939;28;20070;-66
2022/06/24 11:39:35;;;;;;;4.53;1.85;;;19.60;99.90;;;;;;5051263;28;20036;-65
2022/06/24 11:42:01;;;;;;;3.20;1.70;;;19.80;99.90;;;;;;5082416;28;20141;-65
2022/06/24 11:44:34;;;;;;;6.05;2.05;;;19.90;99.90;;;;;;5067499;28;20043;-65
2022/06/24 11:46:59;;;;;;;1.90;1.70;;;20.10;99.90;;;;;;5068525;28;20066;-66
2022/06/24 11:49:26;;;;;;;2.90;1.92;;;20.20;99.90;;;;;;5081227;28;20898;-65
2022/06/24 11:51:52;;;;;;;4.63;2.60;;;20.30;99.90;;;;;;5066228;28;20078;-65
2022/06/24 11:54:18;;;;;;;3.25;2.38;;;20.40;99.90;;;;;;5060297;28;20109;-65
2022/06/24 11:56:44;;;;;;;2.70;2.50;;;20.50;99.90;;;;;;5079501;28;20048;-65
2022/06/24 11:59:13;;;;;;;4.30;3.05;;;20.60;99.90;;;;;;5066956;28;20055;-65
2022/06/24 12:01:40;;;;;;;3.70;2.90;;;20.70;99.90;;;;;;5079615;28;20032;-65
2022/06/24 12:04:08;;;;;;;4.80;3.00;;;20.90;99.90;;;;;;5065257;28;20052;-65
2022/06/24 12:06:36;;;;;;;3.42;2.90;;;21.00;99.90;;;;;;5083055;28;20036;-65
2022/06/24 12:09:01;;;;;;;5.65;5.00;;;21.10;99.90;;;;;;5063525;28;20193;-65
2022/06/24 12:11:27;;;;;;;6.38;5.25;;;21.30;99.90;;;;;;5079188;28;20546;-65
2022/06/24 12:14:05;;;;;;;5.72;5.10;;;21.50;99.90;;;;;;5080354;28;20061;-65
2022/06/24 12:17:06;;;;;;;6.47;5.97;;;21.80;99.90;;;;;;5070166;28;20580;-65
2022/06/24 12:19:33;;;;;;;8.15;7.32;;;22.00;99.90;;;;;;5035391;28;20048;-65
2022/06/24 12:22:18;;;;;;;7.28;6.60;;;22.00;99.90;;;;;;5069028;28;20081;-65
2022/06/24 12:24:44;;;;;;;8.30;7.07;;;22.10;99.90;;;;;;5082750;28;20047;-65
2022/06/24 12:27:10;;;;;;;8.02;7.18;;;22.30;99.90;;;;;;5068292;28;20453;-65
2022/06/24 12:29:41;;;;;;;9.15;8.20;;;22.20;99.90;;;;;;5069920;28;20059;-66
2022/06/24 12:32:07;;;;;;;9.02;8.23;;;22.10;99.90;;;;;;5079831;28;20402;-66
2022/06/24 12:34:38;;;;;;;6.80;6.15;;;22.20;99.90;;;;;;5062409;28;20036;-66
2022/06/24 12:37:10;;;;;;;11.43;7.68;;;22.20;99.90;;;;;;5079652;28;20491;-66
2022/06/24 12:39:37;;;;;;;8.20;7.40;;;22.30;99.90;;;;;;5081032;28;20071;-66
2022/06/24 12:42:04;;;;;;;7.57;6.95;;;22.40;99.90;;;;;;5063666;28;20044;-66
2022/06/24 12:44:46;;;;;;;7.95;7.15;;;22.40;99.90;;;;;;5065869;28;20119;-66
2022/06/24 12:52:49;;;;;;;8.60;7.80;;;22.80;99.90;;;;;;5069807;28;20056;-65
2022/06/24 12:55:17;;;;;;;8.18;7.47;;;22.90;99.90;;;;;;5071033;28;20048;-65
2022/06/24 12:57:44;;;;;;;8.23;7.43;;;23.00;99.90;;;;;;5090133;28;20619;-65
2022/06/24 13:00:15;;;;;;;8.30;7.60;;;23.10;99.90;;;;;;5070468;28;20123;-65
2022/06/24 13:02:43;;;;;;;8.73;7.93;;;23.20;99.90;;;;;;5068754;28;20051;-66
2022/06/24 13:05:12;;;;;;;9.15;8.35;;;23.30;99.90;;;;;;5076172;28;20032;-66
2022/06/24 13:07:38;;;;;;;10.23;9.18;;;23.30;99.90;;;;;;5087332;28;20121;-65
2022/06/24 13:10:06;;;;;;;9.40;7.10;;;23.40;99.90;;;;;;5068461;28;20040;-65